createdAt,value
2018-05-31T00:01:00.311Z,45.83
2018-05-31T00:03:28.628Z,48.93
2018-05-31T00:05:57.008Z,54.47
2018-05-31T00:08:24.588Z,55.70
2018-05-31T00:10:53.141Z,50.67
2018-05-31T00:13:20.741Z,53.20
2018-05-31T00:15:48.249Z,52.60
2018-05-31T00:18:16.538Z,60.83
2018-05-31T00:20:44.838Z,58.70
2018-05-31T00:23:12.385Z,59.30
2018-05-31T00:25:39.981Z,63.40
2018-05-31T00:28:07.515Z,58.67
2018-05-31T00:30:35.027Z,58.83
2018-05-31T00:33:02.739Z,61.77
2018-05-31T00:35:31.018Z,65.37
2018-05-31T00:37:59.302Z,61.67
2018-05-31T00:40:27.593Z,59.63
2018-05-31T00:42:55.141Z,62.97
2018-05-31T00:45:23.426Z,63.90
2018-05-31T00:47:51.715Z,64.87
2018-05-31T00:50:19.261Z,62.43
2018-05-31T00:52:47.561Z,58.50
2018-05-31T00:55:15.070Z,61.83
2018-05-31T00:57:42.590Z,55.03
2018-05-31T01:00:10.148Z,58.50
2018-05-31T01:02:37.729Z,59.40
2018-05-31T01:05:05.258Z,57.73
2018-05-31T01:07:32.801Z,53.23
2018-05-31T01:10:00.331Z,62.10
2018-05-31T01:12:28.669Z,58.50
2018-05-31T01:14:56.944Z,60.50
2018-05-31T01:17:25.173Z,57.37
2018-05-31T01:19:52.739Z,59.93
2018-05-31T01:22:20.263Z,57.53
2018-05-31T01:24:47.869Z,58.60
2018-05-31T01:27:15.389Z,65.83
2018-05-31T01:29:42.922Z,63.67
2018-05-31T01:32:10.433Z,63.70
2018-05-31T01:34:38.731Z,62.57
2018-05-31T01:37:06.243Z,63.50
2018-05-31T01:39:33.756Z,63.93
2018-05-31T01:42:01.300Z,58.90
2018-05-31T01:44:28.854Z,64.67
2018-05-31T01:46:57.189Z,60.80
2018-05-31T01:49:24.726Z,66.87
2018-05-31T01:51:52.270Z,66.10
2018-05-31T01:54:20.593Z,70.63
2018-05-31T01:56:48.118Z,71.10
2018-05-31T01:59:16.429Z,71.77
2018-05-31T02:01:44.002Z,70.43
2018-05-31T02:04:11.746Z,69.23
2018-05-31T02:06:39.465Z,64.50
2018-05-31T02:09:07.012Z,68.23
2018-05-31T02:11:34.813Z,74.40
2018-05-31T02:14:02.483Z,69.13
2018-05-31T02:16:30.808Z,65.97
2018-05-31T02:18:58.514Z,67.43
2018-05-31T02:21:26.323Z,69.83
2018-05-31T02:23:54.637Z,68.13
2018-05-31T02:26:22.160Z,70.87
2018-05-31T02:28:50.464Z,73.37
2018-05-31T02:31:18.236Z,72.47
2018-05-31T02:33:45.873Z,73.17
2018-05-31T02:36:13.627Z,70.77
2018-05-31T02:38:42.007Z,73.90
2018-05-31T02:41:09.830Z,72.83
2018-05-31T02:43:37.590Z,71.33
2018-05-31T02:46:05.353Z,70.77
2018-05-31T02:48:33.168Z,73.60
2018-05-31T02:51:00.932Z,70.83
2018-05-31T02:53:28.691Z,66.93
2018-05-31T02:55:56.326Z,65.77
2018-05-31T02:58:23.855Z,69.30
2018-05-31T03:00:52.177Z,67.83
2018-05-31T03:03:19.693Z,64.93
2018-05-31T03:05:48.000Z,70.53
2018-05-31T03:08:16.580Z,67.43
2018-05-31T03:10:44.866Z,65.27
2018-05-31T03:13:13.166Z,68.57
2018-05-31T03:15:40.693Z,65.43
2018-05-31T03:18:08.206Z,71.77
2018-05-31T03:20:35.763Z,66.93
2018-05-31T03:23:03.294Z,64.73
2018-05-31T03:25:31.601Z,74.57
2018-05-31T03:27:59.132Z,70.43
2018-05-31T03:30:27.438Z,66.03
2018-05-31T03:32:54.961Z,63.90
2018-05-31T03:35:22.489Z,75.47
2018-05-31T03:37:50.076Z,69.97
2018-05-31T03:40:17.607Z,66.03
2018-05-31T03:42:45.138Z,68.50
2018-05-31T03:45:13.445Z,62.90
2018-05-31T03:47:40.987Z,68.73
2018-05-31T03:50:09.281Z,62.13
2018-05-31T03:52:36.817Z,63.97
2018-05-31T03:55:04.320Z,65.13
2018-05-31T03:57:31.863Z,65.47
2018-05-31T04:00:00.164Z,65.10
2018-05-31T04:02:27.724Z,67.23
2018-05-31T04:04:55.538Z,72.20
2018-05-31T04:07:23.072Z,69.83
2018-05-31T04:09:50.611Z,74.77
2018-05-31T04:12:18.149Z,65.07
2018-05-31T04:14:47.291Z,69.83
2018-05-31T04:17:14.836Z,68.90
2018-05-31T04:19:42.398Z,62.57
2018-05-31T04:22:09.956Z,64.97
2018-05-31T04:24:38.274Z,55.07
2018-05-31T04:27:05.828Z,51.30
2018-05-31T04:29:33.362Z,48.20
2018-05-31T04:32:01.667Z,48.17
2018-05-31T04:34:29.219Z,55.73
2018-05-31T04:36:56.737Z,46.37
2018-05-31T04:39:24.269Z,49.87
2018-05-31T04:41:51.811Z,46.07
2018-05-31T04:44:19.358Z,44.37
2018-05-31T04:46:47.652Z,46.40
2018-05-31T04:49:15.201Z,44.47
2018-05-31T04:51:43.503Z,44.80
2018-05-31T04:54:11.817Z,45.53
2018-05-31T04:56:39.343Z,46.00
2018-05-31T04:59:06.902Z,43.47
2018-05-31T05:01:35.225Z,42.17
2018-05-31T05:04:02.749Z,43.50
2018-05-31T05:06:31.061Z,48.30
2018-05-31T05:08:58.569Z,46.23
2018-05-31T05:11:26.100Z,47.03
2018-05-31T05:13:53.610Z,45.80
2018-05-31T05:16:21.170Z,46.30
2018-05-31T05:18:49.515Z,46.50
2018-05-31T05:21:17.811Z,48.30
2018-05-31T05:23:45.320Z,49.07
2018-05-31T05:26:12.861Z,49.37
2018-05-31T05:28:41.147Z,49.53
2018-05-31T05:31:09.437Z,46.90
2018-05-31T05:33:36.958Z,49.17
2018-05-31T05:36:04.495Z,47.20
2018-05-31T05:38:32.027Z,48.30
2018-05-31T05:41:00.318Z,49.57
2018-05-31T05:43:27.893Z,47.63
2018-05-31T05:45:55.425Z,45.63
2018-05-31T05:48:23.735Z,51.17
2018-05-31T05:50:51.327Z,47.47
2018-05-31T05:53:19.653Z,48.20
2018-05-31T05:55:47.964Z,50.70
2018-05-31T05:58:15.530Z,50.53
2018-05-31T06:00:43.056Z,51.40
2018-05-31T06:03:11.397Z,52.90
2018-05-31T06:05:38.909Z,55.97
2018-05-31T06:08:07.189Z,50.07
2018-05-31T06:10:35.497Z,50.03
2018-05-31T06:13:03.024Z,48.00
2018-05-31T06:15:30.589Z,48.73
2018-05-31T06:17:58.078Z,48.20
2018-05-31T06:20:25.593Z,48.37
2018-05-31T06:22:53.122Z,48.07
2018-05-31T06:25:20.657Z,46.47
2018-05-31T06:27:48.942Z,45.63
2018-05-31T06:30:17.275Z,48.33
2018-05-31T06:32:44.810Z,44.47
2018-05-31T06:35:12.371Z,42.27
2018-05-31T06:37:39.936Z,39.87
2018-05-31T06:40:07.447Z,37.97
2018-05-31T06:42:35.006Z,38.73
2018-05-31T06:45:02.505Z,40.97
2018-05-31T06:47:30.818Z,41.63
2018-05-31T06:49:58.353Z,41.37
2018-05-31T06:52:26.633Z,41.27
2018-05-31T06:54:54.943Z,44.60
2018-05-31T06:57:22.516Z,45.47
2018-05-31T06:59:50.049Z,46.30
2018-05-31T07:02:18.325Z,48.27
2018-05-31T07:04:46.609Z,45.50
2018-05-31T07:07:14.911Z,40.37
2018-05-31T07:09:42.414Z,43.63
2018-05-31T07:12:09.940Z,44.17
2018-05-31T07:14:37.477Z,49.10
2018-05-31T07:17:05.769Z,42.13
2018-05-31T07:19:33.289Z,46.20
2018-05-31T07:22:00.806Z,48.40
2018-05-31T07:24:28.324Z,44.83
2018-05-31T07:26:55.846Z,46.97
2018-05-31T07:29:24.109Z,43.17
2018-05-31T07:31:51.641Z,37.67
2018-05-31T07:34:20.109Z,39.37
2018-05-31T07:36:47.635Z,37.97
2018-05-31T07:39:15.139Z,36.60
2018-05-31T07:41:42.684Z,33.80
2018-05-31T07:44:10.191Z,31.70
2018-05-31T07:46:38.471Z,25.97
2018-05-31T07:49:06.828Z,25.47
2018-05-31T07:51:34.363Z,27.60
2018-05-31T07:54:01.892Z,24.53
2018-05-31T07:56:29.431Z,23.43
2018-05-31T07:58:56.961Z,23.20
2018-05-31T08:01:24.460Z,18.80
2018-05-31T08:03:51.991Z,15.50
2018-05-31T08:06:19.532Z,14.13
2018-05-31T08:08:47.891Z,10.23
2018-05-31T08:11:16.194Z,14.20
2018-05-31T08:13:43.724Z,10.50
2018-05-31T08:16:12.005Z,11.13
2018-05-31T08:18:40.282Z,12.93
2018-05-31T08:21:07.814Z,11.60
2018-05-31T08:23:35.346Z,8.50
2018-05-31T08:26:02.841Z,7.03
2018-05-31T08:28:30.376Z,7.53
2018-05-31T08:30:57.903Z,8.03
2018-05-31T08:33:26.160Z,5.23
2018-05-31T08:35:53.743Z,7.27
2018-05-31T08:38:22.018Z,4.47
2018-05-31T08:40:49.527Z,5.77
2018-05-31T08:43:17.071Z,7.57
2018-05-31T08:45:45.356Z,5.87
2018-05-31T08:48:12.876Z,8.93
2018-05-31T08:50:40.400Z,10.43
2018-05-31T08:53:08.682Z,7.87
2018-05-31T08:55:36.201Z,7.40
2018-05-31T08:58:04.479Z,7.93
2018-05-31T09:00:32.010Z,6.80
2018-05-31T09:03:00.132Z,8.43
2018-05-31T09:05:28.428Z,10.30
2018-05-31T09:07:55.997Z,8.63
2018-05-31T09:10:23.549Z,10.57
2018-05-31T09:12:51.865Z,12.17
2018-05-31T09:15:19.418Z,7.53
2018-05-31T09:17:46.950Z,5.93
2018-05-31T09:20:15.258Z,6.20
2018-05-31T09:22:42.773Z,6.60
2018-05-31T09:25:10.379Z,7.60
2018-05-31T09:27:37.884Z,6.73
2018-05-31T09:30:05.406Z,5.50
2018-05-31T09:32:32.925Z,6.67
2018-05-31T09:35:00.482Z,6.73
2018-05-31T09:37:28.005Z,7.83
2018-05-31T09:39:55.549Z,5.30
2018-05-31T09:42:23.079Z,4.97
2018-05-31T09:44:50.602Z,7.77
2018-05-31T09:47:19.178Z,5.33
2018-05-31T09:49:46.691Z,4.53
2018-05-31T09:52:14.243Z,4.17
2018-05-31T09:54:41.754Z,3.90
2018-05-31T09:57:10.023Z,9.03
2018-05-31T09:59:38.307Z,6.23
2018-05-31T10:02:06.580Z,5.93
2018-05-31T10:04:34.873Z,4.00
2018-05-31T10:07:03.194Z,5.63
2018-05-31T10:09:30.735Z,4.30
2018-05-31T10:11:58.266Z,5.17
2018-05-31T10:14:25.786Z,6.17
2018-05-31T10:16:53.277Z,5.13
2018-05-31T10:19:21.623Z,7.13
2018-05-31T10:21:49.235Z,6.13
2018-05-31T10:24:16.797Z,6.77
2018-05-31T10:26:44.333Z,6.93
2018-05-31T10:29:12.635Z,10.03
2018-05-31T10:31:40.145Z,7.17
2018-05-31T10:34:07.668Z,9.93
2018-05-31T10:36:35.931Z,9.17
2018-05-31T10:39:03.454Z,8.83
2018-05-31T10:41:30.962Z,10.70
2018-05-31T10:43:58.502Z,11.37
2018-05-31T10:46:26.054Z,8.50
2018-05-31T10:48:54.442Z,10.83
2018-05-31T10:51:21.998Z,11.20
2018-05-31T10:53:49.570Z,9.07
2018-05-31T10:56:17.081Z,7.20
2018-05-31T10:58:44.589Z,8.47
2018-05-31T11:01:12.109Z,7.67
2018-05-31T11:03:40.395Z,7.23
2018-05-31T11:06:08.711Z,11.40
2018-05-31T11:08:36.263Z,8.00
2018-05-31T11:11:03.743Z,10.00
2018-05-31T11:13:32.034Z,8.30
2018-05-31T11:16:00.327Z,10.13
2018-05-31T11:18:27.859Z,11.73
2018-05-31T11:20:55.398Z,8.17
2018-05-31T11:23:23.668Z,9.90
2018-05-31T11:25:51.191Z,13.30
2018-05-31T11:28:18.722Z,10.23
2018-05-31T11:30:46.257Z,10.60
2018-05-31T11:33:14.545Z,9.00
2018-05-31T11:35:42.835Z,10.63
2018-05-31T11:38:11.104Z,9.63
2018-05-31T11:40:38.701Z,10.83
2018-05-31T11:43:06.252Z,11.63
2018-05-31T11:45:33.773Z,9.17
2018-05-31T11:48:01.356Z,7.47
2018-05-31T11:50:29.660Z,8.50
2018-05-31T11:52:57.205Z,6.23
2018-05-31T11:55:25.496Z,9.70
2018-05-31T11:57:53.780Z,6.97
2018-05-31T12:00:22.083Z,6.03
2018-05-31T12:02:49.612Z,5.67
2018-05-31T12:05:17.623Z,3.97
2018-05-31T12:07:45.178Z,4.90
2018-05-31T12:10:12.705Z,4.67
2018-05-31T12:12:40.234Z,9.73
2018-05-31T12:15:07.825Z,7.57
2018-05-31T12:17:35.356Z,9.33
2018-05-31T12:20:02.838Z,8.20
2018-05-31T12:22:30.371Z,8.50
2018-05-31T12:24:57.903Z,8.13
2018-05-31T12:27:26.199Z,7.87
2018-05-31T12:29:53.722Z,6.73
2018-05-31T12:32:22.046Z,7.67
2018-05-31T12:34:49.561Z,10.53
2018-05-31T12:37:17.075Z,7.57
2018-05-31T12:39:44.592Z,8.03
2018-05-31T12:42:12.998Z,11.33
2018-05-31T12:44:41.287Z,10.50
2018-05-31T12:47:09.562Z,9.50
2018-05-31T12:49:37.870Z,9.67
2018-05-31T12:52:05.439Z,9.50
2018-05-31T12:54:32.962Z,12.30
2018-05-31T12:57:01.237Z,12.67
2018-05-31T12:59:29.818Z,11.20
2018-05-31T13:01:57.373Z,9.00
2018-05-31T13:04:24.894Z,10.17
2018-05-31T13:06:52.395Z,11.87
2018-05-31T13:09:19.925Z,11.80
2018-05-31T13:11:48.208Z,10.23
2018-05-31T13:14:15.798Z,10.23
2018-05-31T13:16:43.328Z,10.43
2018-05-31T13:19:10.856Z,11.53
2018-05-31T13:21:39.157Z,10.53
2018-05-31T13:24:07.431Z,10.63
2018-05-31T13:26:35.820Z,10.90
2018-05-31T13:29:04.130Z,11.97
2018-05-31T13:31:31.676Z,10.97
2018-05-31T13:33:59.223Z,13.47
2018-05-31T13:36:27.535Z,15.90
2018-05-31T13:38:55.081Z,14.63
2018-05-31T13:41:22.654Z,14.07
2018-05-31T13:43:50.189Z,14.60
2018-05-31T13:46:18.471Z,14.60
2018-05-31T13:48:46.731Z,16.30
2018-05-31T13:51:14.238Z,13.23
2018-05-31T13:53:41.746Z,13.73
2018-05-31T13:56:09.253Z,15.43
2018-05-31T13:58:37.550Z,13.83
2018-05-31T14:01:05.075Z,13.57
2018-05-31T14:03:32.593Z,10.43
2018-05-31T14:06:00.103Z,15.43
2018-05-31T14:08:27.626Z,14.53
2018-05-31T14:10:55.203Z,11.67
2018-05-31T14:13:22.745Z,11.77
2018-05-31T14:15:50.261Z,14.03
2018-05-31T14:18:18.564Z,12.63
2018-05-31T14:20:46.400Z,14.30
2018-05-31T14:23:13.998Z,12.50
2018-05-31T14:25:41.514Z,15.40
2018-05-31T14:28:09.131Z,14.07
2018-05-31T14:30:36.646Z,15.63
2018-05-31T14:33:04.177Z,13.67
2018-05-31T14:35:31.702Z,11.67
2018-05-31T14:38:00.088Z,12.73
2018-05-31T14:40:28.382Z,10.40
2018-05-31T14:42:55.902Z,10.87
2018-05-31T14:45:23.421Z,10.47
2018-05-31T14:47:50.922Z,13.63
2018-05-31T14:50:18.451Z,13.27
2018-05-31T14:52:45.957Z,14.23
2018-05-31T14:55:13.453Z,13.70
2018-05-31T14:57:41.752Z,12.63
2018-05-31T15:00:09.286Z,15.17
2018-05-31T15:02:36.839Z,14.93
2018-05-31T15:05:04.352Z,17.40
2018-05-31T15:07:31.878Z,20.27
2018-05-31T15:10:00.157Z,20.73
2018-05-31T15:12:28.463Z,19.90
2018-05-31T15:14:55.976Z,18.77
2018-05-31T15:17:23.515Z,18.07
2018-05-31T15:19:51.366Z,18.50
2018-05-31T15:22:18.890Z,17.60
2018-05-31T15:24:46.706Z,17.37
2018-05-31T15:27:14.221Z,17.03
2018-05-31T15:29:41.748Z,19.63
2018-05-31T15:32:09.604Z,15.63
2018-05-31T15:34:37.136Z,13.90
2018-05-31T15:37:05.413Z,14.47
2018-05-31T15:39:33.721Z,15.03
2018-05-31T15:42:01.290Z,13.63
2018-05-31T15:44:28.840Z,15.23
2018-05-31T15:46:56.367Z,14.90
2018-05-31T15:49:23.906Z,13.50
2018-05-31T15:51:51.468Z,15.10
2018-05-31T15:54:19.005Z,13.30
2018-05-31T15:56:46.573Z,14.83
2018-05-31T15:59:14.096Z,13.33
2018-05-31T16:01:42.607Z,12.10
2018-05-31T16:04:11.127Z,12.93
2018-05-31T16:06:38.671Z,13.60
2018-05-31T16:09:06.219Z,13.00
2018-05-31T16:11:33.735Z,12.87
2018-05-31T16:14:01.272Z,14.97
2018-05-31T16:16:28.812Z,14.60
2018-05-31T16:18:56.581Z,13.60
2018-05-31T16:21:24.114Z,13.63
2018-05-31T16:23:51.647Z,11.90
2018-05-31T16:26:19.147Z,12.67
2018-05-31T16:28:47.697Z,12.03
2018-05-31T16:31:15.502Z,18.77
2018-05-31T16:33:43.081Z,16.67
2018-05-31T16:36:11.361Z,23.13
2018-05-31T16:38:39.648Z,24.50
2018-05-31T16:41:07.218Z,19.17
2018-05-31T16:43:34.898Z,18.33
2018-05-31T16:46:02.846Z,19.47
2018-05-31T16:48:31.166Z,15.80
2018-05-31T16:50:58.722Z,21.77
2018-05-31T16:53:27.669Z,19.23
2018-05-31T16:55:55.176Z,17.23
2018-05-31T16:58:22.901Z,16.50
2018-05-31T17:00:50.467Z,22.43
2018-05-31T17:03:18.006Z,22.63
2018-05-31T17:05:45.874Z,21.13
2018-05-31T17:08:13.406Z,21.93
2018-05-31T17:10:40.936Z,24.10
2018-05-31T17:13:09.243Z,22.77
2018-05-31T17:15:36.825Z,22.67
2018-05-31T17:18:04.386Z,21.97
2018-05-31T17:20:31.942Z,22.37
2018-05-31T17:22:59.488Z,23.00
2018-05-31T17:25:27.788Z,24.67
2018-05-31T17:27:55.345Z,21.77
2018-05-31T17:30:22.858Z,23.20
2018-05-31T17:32:50.434Z,24.27
2018-05-31T17:35:17.974Z,22.87
2018-05-31T17:37:45.510Z,20.37
2018-05-31T17:40:13.022Z,23.07
2018-05-31T17:42:41.347Z,22.33
2018-05-31T17:45:08.890Z,25.07
2018-05-31T17:47:37.190Z,23.07
2018-05-31T17:50:06.635Z,26.30
2018-05-31T17:52:34.157Z,24.10
2018-05-31T17:55:01.682Z,20.80
2018-05-31T17:57:29.240Z,21.30
2018-05-31T17:59:56.773Z,23.03
2018-05-31T18:02:25.081Z,23.13
2018-05-31T18:04:52.613Z,24.40
2018-05-31T18:07:20.142Z,20.73
2018-05-31T18:09:48.421Z,22.27
2018-05-31T18:12:16.738Z,21.20
2018-05-31T18:14:44.290Z,21.97
2018-05-31T18:17:12.580Z,21.77
2018-05-31T18:19:40.144Z,23.03
2018-05-31T18:22:08.442Z,21.10
2018-05-31T18:24:35.964Z,23.40
2018-05-31T18:27:04.275Z,25.63
2018-05-31T18:29:31.833Z,24.27
2018-05-31T18:32:00.126Z,26.00
2018-05-31T18:34:27.693Z,22.50
2018-05-31T18:36:55.234Z,22.80
2018-05-31T18:39:22.751Z,22.90
2018-05-31T18:41:50.289Z,24.93
2018-05-31T18:44:17.800Z,21.30
2018-05-31T18:46:46.103Z,24.20
2018-05-31T18:49:14.091Z,26.60
2018-05-31T18:51:41.648Z,25.50
2018-05-31T18:54:09.178Z,22.37
2018-05-31T18:56:37.531Z,24.93
2018-05-31T18:59:05.870Z,21.33
2018-05-31T19:01:33.425Z,24.03
2018-05-31T19:04:01.750Z,22.50
2018-05-31T19:06:29.290Z,24.63
2018-05-31T19:08:56.828Z,21.97
2018-05-31T19:11:24.383Z,21.37
2018-05-31T19:13:57.679Z,22.83
2018-05-31T19:16:25.987Z,23.70
2018-05-31T19:18:59.251Z,21.73
2018-05-31T19:21:27.581Z,20.37
2018-05-31T19:23:55.144Z,24.27
2018-05-31T19:26:22.744Z,22.63
2018-05-31T19:28:50.254Z,20.63
2018-05-31T19:31:17.793Z,20.60
2018-05-31T19:33:46.103Z,20.23
2018-05-31T19:36:19.232Z,19.37
2018-05-31T19:38:46.747Z,20.53
2018-05-31T19:41:14.267Z,18.87
2018-05-31T19:43:47.385Z,21.23
2018-05-31T19:46:15.663Z,22.63
2018-05-31T19:48:43.953Z,21.97
2018-05-31T19:51:11.569Z,20.47
2018-05-31T19:53:44.345Z,21.67
2018-05-31T19:56:11.871Z,20.43
2018-05-31T19:58:45.102Z,21.57
2018-05-31T20:01:18.967Z,20.40
2018-05-31T20:03:46.471Z,20.97
2018-05-31T20:06:13.983Z,21.17
2018-05-31T20:08:42.273Z,22.10
2018-05-31T20:11:11.473Z,23.00
2018-05-31T20:13:39.025Z,23.60
2018-05-31T20:16:07.306Z,24.40
2018-05-31T20:18:35.582Z,21.30
2018-05-31T20:21:03.875Z,22.60
2018-05-31T20:23:32.181Z,21.40
2018-05-31T20:25:59.713Z,23.07
2018-05-31T20:28:28.006Z,22.10
2018-05-31T20:30:55.605Z,24.10
2018-05-31T20:33:23.125Z,24.40
2018-05-31T20:35:51.435Z,24.80
2018-05-31T20:38:18.951Z,28.53
2018-05-31T20:40:46.504Z,24.00
2018-05-31T20:43:14.056Z,24.03
2018-05-31T20:45:41.590Z,21.63
2018-05-31T20:48:09.919Z,22.47
2018-05-31T20:50:37.447Z,22.60
2018-05-31T20:53:04.987Z,25.67
2018-05-31T20:55:32.550Z,24.57
2018-05-31T20:58:00.097Z,23.83
2018-05-31T21:00:28.406Z,27.37
2018-05-31T21:02:55.991Z,22.73
2018-05-31T21:05:23.568Z,24.67
2018-05-31T21:07:51.054Z,25.07
2018-05-31T21:10:19.395Z,24.07
2018-05-31T21:12:46.917Z,27.23
2018-05-31T21:15:15.150Z,24.90
2018-05-31T21:17:42.717Z,26.17
2018-05-31T21:20:10.262Z,24.77
2018-05-31T21:22:37.816Z,26.13
2018-05-31T21:25:05.360Z,29.70
2018-05-31T21:27:33.641Z,25.60
2018-05-31T21:30:01.914Z,28.17
2018-05-31T21:32:30.169Z,28.70
2018-05-31T21:34:57.755Z,27.07
2018-05-31T21:37:26.064Z,30.07
2018-05-31T21:39:53.610Z,27.90
2018-05-31T21:42:21.256Z,27.43
2018-05-31T21:44:48.777Z,28.07
2018-05-31T21:47:22.328Z,28.77
2018-05-31T21:49:49.917Z,25.63
2018-05-31T21:52:17.487Z,28.40
2018-05-31T21:54:45.006Z,26.33
2018-05-31T21:57:12.523Z,25.70
2018-05-31T21:59:40.045Z,26.20
2018-05-31T22:02:08.321Z,27.20
2018-05-31T22:04:35.851Z,28.37
2018-05-31T22:07:03.370Z,29.20
2018-05-31T22:09:30.896Z,27.60
2018-05-31T22:11:58.415Z,28.67
2018-05-31T22:14:25.952Z,27.73
2018-05-31T22:16:54.217Z,29.33
2018-05-31T22:19:22.594Z,29.70
2018-05-31T22:21:50.083Z,31.57
2018-05-31T22:24:17.628Z,31.67
2018-05-31T22:26:45.141Z,31.53
2018-05-31T22:29:12.705Z,31.13
2018-05-31T22:31:40.225Z,29.80
2018-05-31T22:34:08.545Z,28.20
2018-05-31T22:36:36.104Z,33.53
2018-05-31T22:39:03.622Z,31.77
2018-05-31T22:41:31.193Z,31.53
2018-05-31T22:43:59.471Z,32.97
2018-05-31T22:46:27.017Z,32.90
2018-05-31T22:48:54.552Z,32.43
2018-05-31T22:51:22.070Z,28.83
2018-05-31T22:53:50.348Z,29.40
2018-05-31T22:56:18.624Z,29.43
2018-05-31T22:58:46.148Z,30.60
2018-05-31T23:01:13.689Z,31.57
2018-05-31T23:03:41.224Z,27.40
2018-05-31T23:06:09.512Z,29.10
2018-05-31T23:08:42.595Z,28.53
2018-05-31T23:11:10.893Z,30.27
2018-05-31T23:13:38.426Z,31.60
2018-05-31T23:16:06.721Z,31.77
2018-05-31T23:18:35.028Z,29.53
2018-05-31T23:21:02.549Z,33.20
2018-05-31T23:23:30.066Z,30.80
2018-05-31T23:25:57.602Z,32.70
2018-05-31T23:28:26.493Z,30.57
2018-05-31T23:30:54.861Z,31.97
2018-05-31T23:33:23.157Z,31.13
2018-05-31T23:35:51.465Z,33.63
2018-05-31T23:38:18.987Z,34.33
2018-05-31T23:40:47.302Z,35.93
2018-05-31T23:43:14.877Z,37.13
2018-05-31T23:45:42.413Z,37.07
2018-05-31T23:48:10.686Z,37.50
2018-05-31T23:50:38.992Z,39.70
2018-05-31T23:53:06.529Z,40.20
2018-05-31T23:55:34.809Z,35.40
2018-05-31T23:58:03.074Z,41.00
